Time;durP1;ratioP1;P1;durP2;ratioP2;P2;SDS_P1;SDS_P2;PMS_P1;PMS_P2;Temp;Humidity;BMP_temperature;BMP_pressure;BME280_temperature;BME280_humidity;BME280_pressure;Samples;Min_cycle;Max_cycle;Signal;HPM_P1;HPM_P2
2023/09/06 00:01:16;;;;;;;6.50;4.87;;;18.70;99.90;;;;;;4971998;28;20231;-71
2023/09/06 00:03:42;;;;;;;5.57;4.97;;;18.70;99.90;;;;;;4976346;28;20425;-70
2023/09/06 00:06:08;;;;;;;5.23;4.80;;;18.70;99.90;;;;;;4982387;28;20506;-70
2023/09/06 00:08:33;;;;;;;7.67;4.80;;;18.70;99.90;;;;;;4984686;28;20213;-71
2023/09/06 00:11:04;;;;;;;5.73;5.20;;;18.70;99.90;;;;;;4972802;28;20538;-69
2023/09/06 00:13:31;;;;;;;7.70;4.60;;;18.70;99.90;;;;;;4973138;28;20203;-69
2023/09/06 00:15:56;;;;;;;5.67;5.27;;;18.60;99.90;;;;;;4974320;28;20837;-70
2023/09/06 00:18:23;;;;;;;5.67;4.50;;;18.60;99.90;;;;;;4973723;28;20471;-71
2023/09/06 00:20:48;;;;;;;4.97;4.47;;;18.50;99.90;;;;;;4967990;28;20222;-70
2023/09/06 00:23:15;;;;;;;4.73;4.10;;;18.50;99.90;;;;;;4954484;29;20474;-70
2023/09/06 00:25:40;;;;;;;4.97;4.50;;;18.50;99.90;;;;;;4957301;28;20716;-69
2023/09/06 00:28:07;;;;;;;5.33;4.83;;;18.40;99.90;;;;;;4965268;28;20435;-69
2023/09/06 00:30:33;;;;;;;6.43;5.83;;;18.40;99.90;;;;;;4972505;28;20208;-70
2023/09/06 00:32:59;;;;;;;4.40;4.00;;;18.40;99.90;;;;;;4973341;28;20469;-69
2023/09/06 00:35:26;;;;;;;5.53;5.00;;;18.40;99.90;;;;;;4973454;28;20916;-69
2023/09/06 00:37:55;;;;;;;5.13;4.60;;;18.30;99.90;;;;;;4972070;28;20507;-69
2023/09/06 00:40:22;;;;;;;6.00;4.10;;;18.30;99.90;;;;;;4967141;28;20818;-70
2023/09/06 00:42:52;;;;;;;4.90;4.40;;;18.20;99.90;;;;;;4967149;28;21007;-70
2023/09/06 00:45:22;;;;;;;6.33;5.17;;;18.20;99.90;;;;;;4969129;28;20434;-69
2023/09/06 00:47:53;;;;;;;5.53;5.03;;;18.20;99.90;;;;;;4972521;28;20958;-70
2023/09/06 00:50:20;;;;;;;6.27;4.33;;;18.10;99.90;;;;;;4972625;28;20524;-70
2023/09/06 00:52:46;;;;;;;4.60;4.20;;;18.00;99.90;;;;;;4972858;28;20501;-70
2023/09/06 00:55:12;;;;;;;7.33;4.00;;;18.10;99.90;;;;;;4969834;28;20432;-70
2023/09/06 00:57:40;;;;;;;5.50;5.00;;;18.00;99.90;;;;;;4973706;28;20441;-69
2023/09/06 01:00:08;;;;;;;6.57;4.80;;;18.00;99.90;;;;;;4965194;28;20460;-69
2023/09/06 01:02:34;;;;;;;5.17;4.00;;;18.00;99.90;;;;;;4968338;28;20429;-70
2023/09/06 01:05:00;;;;;;;5.20;4.80;;;18.00;99.90;;;;;;4967228;28;20420;-70
2023/09/06 01:07:30;;;;;;;5.17;4.67;;;18.00;99.90;;;;;;4967078;28;20269;-70
2023/09/06 01:09:56;;;;;;;5.60;4.50;;;17.90;99.90;;;;;;4969892;28;20468;-71
2023/09/06 01:12:21;;;;;;;5.30;4.80;;;17.90;99.90;;;;;;4968362;28;20487;-71
2023/09/06 01:14:51;;;;;;;5.73;4.97;;;17.80;99.90;;;;;;4972237;28;20646;-70
2023/09/06 01:17:19;;;;;;;7.90;4.60;;;17.90;99.90;;;;;;4973843;28;20174;-70
2023/09/06 01:19:48;;;;;;;5.63;4.40;;;17.90;99.90;;;;;;4969831;28;20476;-70
2023/09/06 01:22:26;;;;;;;6.60;4.27;;;17.80;99.90;;;;;;4967577;28;20504;-70
2023/09/06 01:24:52;;;;;;;6.80;4.67;;;17.80;99.90;;;;;;4966097;28;20645;-69
2023/09/06 01:27:18;;;;;;;5.70;5.10;;;17.70;99.90;;;;;;4971301;28;20439;-69
2023/09/06 01:29:44;;;;;;;8.03;5.50;;;17.70;99.90;;;;;;4956835;28;20467;-71
2023/09/06 01:32:10;;;;;;;5.63;5.07;;;17.70;99.90;;;;;;4962773;28;20760;-70
2023/09/06 01:34:35;;;;;;;4.80;4.40;;;17.70;99.90;;;;;;4973115;28;20209;-70
2023/09/06 01:37:01;;;;;;;4.97;4.50;;;17.80;99.90;;;;;;4977142;28;20549;-70
2023/09/06 01:39:30;;;;;;;5.53;5.13;;;17.70;99.90;;;;;;4972663;28;20193;-70
2023/09/06 01:41:55;;;;;;;7.80;4.93;;;17.70;99.90;;;;;;4971683;28;20201;-69
2023/09/06 01:44:21;;;;;;;5.53;5.10;;;17.60;99.90;;;;;;4971131;28;20459;-69
2023/09/06 01:46:47;;;;;;;6.50;5.30;;;17.60;99.90;;;;;;4959634;28;20181;-71
2023/09/06 01:49:12;;;;;;;4.80;4.40;;;17.60;99.90;;;;;;4971432;28;20178;-72
2023/09/06 01:51:38;;;;;;;5.30;4.80;;;17.50;99.90;;;;;;4973945;28;20181;-69
2023/09/06 01:54:04;;;;;;;6.97;5.10;;;17.50;99.90;;;;;;4973314;28;20644;-70
2023/09/06 01:56:41;;;;;;;5.57;4.80;;;17.50;99.90;;;;;;4972973;28;20174;-69
2023/09/06 01:59:10;;;;;;;7.13;5.97;;;17.50;99.90;;;;;;4971481;28;20409;-69
2023/09/06 02:01:36;;;;;;;5.90;4.97;;;17.50;99.90;;;;;;4953414;28;20421;-70
2023/09/06 02:04:05;;;;;;;4.80;4.40;;;17.40;99.90;;;;;;4961590;28;20944;-69
2023/09/06 02:06:31;;;;;;;5.63;4.20;;;17.40;99.90;;;;;;4976425;28;20225;-69
2023/09/06 02:08:56;;;;;;;5.90;5.30;;;17.40;99.90;;;;;;4975530;28;20430;-70
2023/09/06 02:11:22;;;;;;;7.40;6.70;;;17.40;99.90;;;;;;4972499;28;20724;-70
2023/09/06 02:13:48;;;;;;;6.10;4.93;;;17.30;99.90;;;;;;4970584;28;20312;-69
2023/09/06 02:16:13;;;;;;;5.90;5.27;;;17.30;99.90;;;;;;4975592;28;20934;-71
2023/09/06 02:18:39;;;;;;;5.30;4.80;;;17.30;99.90;;;;;;4976316;28;20169;-71
2023/09/06 02:21:04;;;;;;;5.60;5.00;;;17.30;99.90;;;;;;4958907;28;20727;-71
2023/09/06 02:23:30;;;;;;;8.20;5.90;;;17.30;99.90;;;;;;4962110;28;20231;-71
2023/09/06 02:25:56;;;;;;;7.10;5.40;;;17.30;99.90;;;;;;4974321;28;20181;-71
2023/09/06 02:28:22;;;;;;;6.20;5.60;;;17.30;99.90;;;;;;4973768;28;20181;-71
2023/09/06 02:30:47;;;;;;;6.63;5.90;;;17.20;99.90;;;;;;4970516;28;20202;-69
2023/09/06 02:33:14;;;;;;;4.73;4.33;;;17.20;99.90;;;;;;4969724;28;20250;-70
2023/09/06 02:35:43;;;;;;;7.03;6.43;;;17.30;99.90;;;;;;4975765;28;20254;-71
2023/09/06 02:38:10;;;;;;;8.80;5.37;;;17.30;99.90;;;;;;4959057;28;20913;-70
2023/09/06 02:40:37;;;;;;;6.80;6.20;;;17.30;99.90;;;;;;4963527;28;21002;-72
2023/09/06 02:43:04;;;;;;;7.53;6.10;;;17.30;99.90;;;;;;4974091;28;20936;-69
2023/09/06 02:45:36;;;;;;;9.70;5.67;;;17.20;99.90;;;;;;4974767;28;20412;-69
2023/09/06 02:48:16;;;;;;;6.23;5.63;;;17.20;99.90;;;;;;4975427;28;20445;-69
2023/09/06 02:50:44;;;;;;;7.20;5.70;;;17.10;99.90;;;;;;4975558;28;21010;-70
2023/09/06 02:53:19;;;;;;;6.17;5.43;;;17.10;99.90;;;;;;4974550;28;20455;-71
2023/09/06 02:55:51;;;;;;;6.07;5.47;;;17.10;99.90;;;;;;4967381;28;20511;-72
2023/09/06 02:58:18;;;;;;;6.30;5.70;;;17.00;99.90;;;;;;4975313;28;20499;-71
2023/09/06 03:00:47;;;;;;;8.60;6.13;;;17.00;99.90;;;;;;4974025;28;20456;-71
2023/09/06 03:03:15;;;;;;;7.30;6.13;;;17.00;99.90;;;;;;4975025;28;20420;-72
2023/09/06 03:05:41;;;;;;;6.63;5.43;;;17.00;99.90;;;;;;4975452;28;20414;-72
2023/09/06 03:08:08;;;;;;;6.30;5.50;;;16.90;99.90;;;;;;4977952;28;20496;-71
2023/09/06 03:10:35;;;;;;;9.30;6.20;;;16.90;99.90;;;;;;4975544;28;20549;-72
2023/09/06 03:13:01;;;;;;;6.77;5.43;;;16.90;99.90;;;;;;4977754;28;20465;-71
2023/09/06 03:15:28;;;;;;;6.03;5.43;;;16.80;99.90;;;;;;4981846;28;20410;-71
2023/09/06 03:17:58;;;;;;;6.47;5.87;;;16.80;99.90;;;;;;4970137;28;20435;-71
2023/09/06 03:20:33;;;;;;;8.53;5.63;;;16.80;99.90;;;;;;4973908;28;20458;-71
2023/09/06 03:23:16;;;;;;;5.63;5.17;;;16.80;99.90;;;;;;4972061;28;20937;-72
2023/09/06 03:25:47;;;;;;;6.17;4.90;;;16.80;99.90;;;;;;4968821;28;20927;-72
2023/09/06 03:28:13;;;;;;;6.93;6.23;;;16.70;99.90;;;;;;4974026;28;21056;-72
2023/09/06 03:30:39;;;;;;;5.83;5.23;;;16.70;99.90;;;;;;4973423;28;20848;-72
2023/09/06 03:33:06;;;;;;;5.50;5.00;;;16.70;99.90;;;;;;4973296;28;20460;-72
2023/09/06 03:35:31;;;;;;;6.20;5.63;;;16.60;99.90;;;;;;4965523;28;20176;-71
2023/09/06 03:37:58;;;;;;;7.27;6.63;;;16.60;99.90;;;;;;4972657;28;20981;-71
2023/09/06 03:40:37;;;;;;;10.33;6.30;;;16.50;99.90;;;;;;4985750;28;20200;-71
2023/09/06 03:43:04;;;;;;;6.53;5.93;;;16.50;99.90;;;;;;4972546;28;20429;-71
2023/09/06 03:45:31;;;;;;;6.00;5.50;;;16.50;99.90;;;;;;4963552;28;20543;-72
2023/09/06 03:47:57;;;;;;;6.03;5.47;;;16.50;99.90;;;;;;4955712;29;20420;-71
2023/09/06 03:50:23;;;;;;;6.80;5.73;;;16.50;99.90;;;;;;4959714;28;20459;-71
2023/09/06 03:52:50;;;;;;;6.87;6.17;;;16.40;99.90;;;;;;4969140;28;20460;-71
2023/09/06 03:55:16;;;;;;;7.33;6.63;;;16.40;99.90;;;;;;4972364;28;20947;-72
2023/09/06 03:57:43;;;;;;;8.10;6.63;;;16.40;99.90;;;;;;4974075;28;20426;-71
2023/09/06 04:00:44;;;;;;;7.70;6.13;;;16.40;99.90;;;;;;4973856;28;20428;-72
2023/09/06 04:03:03;;;;;;;7.00;6.30;;;16.30;99.90;;;;;;4972114;28;20423;-71
2023/09/06 04:05:29;;;;;;;9.63;6.03;;;16.30;99.90;;;;;;4963685;28;20430;-71
2023/09/06 04:07:56;;;;;;;7.27;6.57;;;16.30;99.90;;;;;;4967854;28;20950;-68
2023/09/06 04:10:24;;;;;;;6.30;5.73;;;16.30;99.90;;;;;;4971005;28;20197;-72
2023/09/06 04:12:50;;;;;;;7.60;6.13;;;16.30;99.90;;;;;;4973957;28;20539;-72
2023/09/06 04:15:21;;;;;;;7.23;6.43;;;16.30;99.90;;;;;;4967570;28;20923;-72
2023/09/06 04:17:49;;;;;;;6.13;5.53;;;16.30;99.90;;;;;;4967952;28;20431;-69
2023/09/06 04:20:22;;;;;;;7.03;6.20;;;16.30;99.90;;;;;;4971580;28;20451;-71
2023/09/06 04:22:47;;;;;;;8.37;6.33;;;16.30;99.90;;;;;;4969242;28;20511;-71
2023/09/06 04:25:18;;;;;;;6.30;5.80;;;16.30;99.90;;;;;;4969941;28;20422;-69
2023/09/06 04:27:45;;;;;;;5.83;5.33;;;16.20;99.90;;;;;;4969637;28;20184;-71
2023/09/06 04:30:13;;;;;;;7.90;6.53;;;16.20;99.90;;;;;;4974146;28;20438;-72
2023/09/06 04:32:38;;;;;;;8.57;6.70;;;16.20;99.90;;;;;;4985753;28;20466;-72
2023/09/06 04:35:06;;;;;;;7.40;6.70;;;16.20;99.90;;;;;;4973467;28;20426;-72
2023/09/06 04:37:32;;;;;;;7.47;6.77;;;16.30;99.90;;;;;;4971911;28;20185;-72
2023/09/06 04:39:57;;;;;;;7.73;6.93;;;16.20;99.90;;;;;;4967885;28;20451;-72
2023/09/06 04:42:23;;;;;;;7.40;6.70;;;16.30;99.90;;;;;;4971823;28;20181;-71
2023/09/06 04:44:49;;;;;;;7.87;6.73;;;16.30;99.90;;;;;;4973509;28;20606;-72
2023/09/06 04:47:15;;;;;;;6.80;6.10;;;16.30;99.90;;;;;;4968933;28;20186;-71
2023/09/06 04:49:42;;;;;;;6.20;5.80;;;16.30;99.90;;;;;;4970484;28;20454;-71
2023/09/06 04:52:08;;;;;;;7.17;5.90;;;16.30;99.90;;;;;;4972561;28;20259;-71
2023/09/06 04:54:33;;;;;;;6.83;6.13;;;16.30;99.90;;;;;;4969821;28;20534;-72
2023/09/06 04:56:59;;;;;;;6.80;6.10;;;16.30;99.90;;;;;;4973498;28;20168;-71
2023/09/06 04:59:24;;;;;;;6.73;6.10;;;16.30;99.90;;;;;;4973379;28;20682;-71
2023/09/06 05:01:50;;;;;;;6.97;6.27;;;16.40;99.90;;;;;;4973320;28;20514;-70
2023/09/06 05:04:18;;;;;;;7.20;6.50;;;16.40;99.90;;;;;;4968296;28;20184;-71
2023/09/06 05:06:44;;;;;;;7.30;6.60;;;16.40;99.90;;;;;;4967135;28;20188;-71
2023/09/06 05:09:10;;;;;;;7.30;6.40;;;16.40;99.90;;;;;;4969488;28;20770;-71
2023/09/06 05:11:36;;;;;;;6.50;5.93;;;16.50;99.90;;;;;;4973278;28;20830;-70
2023/09/06 05:14:03;;;;;;;8.07;7.33;;;16.50;99.90;;;;;;4972206;28;20546;-70
2023/09/06 05:16:29;;;;;;;6.60;6.00;;;16.50;99.90;;;;;;4972424;28;20183;-71
2023/09/06 05:18:54;;;;;;;7.70;7.00;;;16.60;99.90;;;;;;4973252;28;20407;-72
2023/09/06 05:21:20;;;;;;;7.80;7.07;;;16.60;99.90;;;;;;4971112;28;20236;-72
2023/09/06 05:23:45;;;;;;;7.77;6.50;;;16.70;99.90;;;;;;4969455;28;20231;-71
2023/09/06 05:26:11;;;;;;;8.40;6.50;;;16.70;99.90;;;;;;4973328;28;20274;-72
2023/09/06 05:28:37;;;;;;;9.10;6.57;;;16.80;99.90;;;;;;4973563;28;20180;-72
2023/09/06 05:31:03;;;;;;;6.60;5.90;;;16.80;99.90;;;;;;4968632;28;20711;-72
2023/09/06 05:33:29;;;;;;;7.30;6.70;;;16.90;99.90;;;;;;4969971;28;23308;-71
2023/09/06 05:35:54;;;;;;;7.90;7.20;;;16.90;99.90;;;;;;4958724;28;20526;-71
2023/09/06 05:38:20;;;;;;;8.57;6.67;;;17.00;99.90;;;;;;4969702;28;20211;-71
2023/09/06 05:40:47;;;;;;;10.77;7.63;;;17.00;99.90;;;;;;4975682;28;20191;-71
2023/09/06 05:43:13;;;;;;;7.87;7.07;;;17.10;99.90;;;;;;4975639;28;20557;-72
2023/09/06 05:45:39;;;;;;;7.37;6.50;;;17.30;99.90;;;;;;4964580;28;20433;-70
2023/09/06 05:48:05;;;;;;;7.53;6.83;;;17.60;99.90;;;;;;4975001;28;20174;-70
2023/09/06 05:50:31;;;;;;;7.50;5.47;;;17.90;99.90;;;;;;4978052;28;20204;-70
2023/09/06 05:52:57;;;;;;;7.40;5.63;;;18.40;99.90;;;;;;4973428;28;20458;-72
2023/09/06 05:55:22;;;;;;;6.53;5.70;;;19.00;99.90;;;;;;4972843;28;20187;-70
2023/09/06 05:57:48;;;;;;;7.00;5.63;;;19.20;99.90;;;;;;4970339;28;20181;-70
2023/09/06 06:00:15;;;;;;;5.87;5.07;;;19.90;99.90;;;;;;4975779;28;20316;-72
2023/09/06 06:02:45;;;;;;;11.53;5.97;;;20.40;99.90;;;;;;4974830;28;20181;-71
2023/09/06 06:05:12;;;;;;;6.33;4.80;;;20.80;99.90;;;;;;4974695;28;20416;-72
2023/09/06 06:07:41;;;;;;;6.47;5.60;;;20.70;99.90;;;;;;4974863;28;20412;-72
2023/09/06 06:10:10;;;;;;;7.70;6.13;;;21.20;99.90;;;;;;4974276;28;20445;-72
2023/09/06 06:12:38;;;;;;;9.73;5.20;;;21.30;99.90;;;;;;4977041;28;20450;-72
2023/09/06 06:15:05;;;;;;;6.23;5.60;;;21.90;99.90;;;;;;4975325;28;20796;-72
2023/09/06 06:17:31;;;;;;;8.00;6.10;;;22.00;99.90;;;;;;4975681;28;20524;-71
2023/09/06 06:19:57;;;;;;;8.40;5.60;;;21.90;99.90;;;;;;4988674;28;20541;-71
2023/09/06 06:22:22;;;;;;;6.10;5.60;;;22.00;99.90;;;;;;4988473;28;20176;-72
2023/09/06 06:24:48;;;;;;;10.13;5.17;;;22.80;99.90;;;;;;4979718;28;20214;-72
2023/09/06 06:27:13;;;;;;;8.97;5.33;;;23.10;99.90;;;;;;4975766;28;20180;-72
2023/09/06 06:29:39;;;;;;;9.10;6.37;;;23.10;99.90;;;;;;4969353;28;20207;-71
2023/09/06 06:32:05;;;;;;;9.90;6.20;;;23.50;99.90;;;;;;4972083;28;20274;-72
2023/09/06 06:34:30;;;;;;;6.93;6.07;;;23.20;99.90;;;;;;4974867;28;20216;-72
2023/09/06 06:36:56;;;;;;;9.17;6.40;;;23.30;99.90;;;;;;4969926;28;20563;-72
2023/09/06 06:39:22;;;;;;;9.13;5.30;;;23.00;99.90;;;;;;4973387;28;20723;-72
2023/09/06 06:41:47;;;;;;;7.90;5.63;;;23.60;99.90;;;;;;4967348;28;20178;-71
2023/09/06 06:44:13;;;;;;;6.07;5.47;;;23.60;99.90;;;;;;4973211;28;20173;-72
2023/09/06 06:46:39;;;;;;;9.07;6.13;;;23.70;99.90;;;;;;4970695;28;20181;-72
2023/09/06 06:49:07;;;;;;;7.90;6.40;;;24.10;99.90;;;;;;4969155;28;20181;-69
2023/09/06 06:51:38;;;;;;;7.13;5.30;;;24.80;99.90;;;;;;4962326;28;20517;-72
2023/09/06 06:54:09;;;;;;;6.70;5.10;;;25.60;99.90;;;;;;4963776;28;20875;-71
2023/09/06 06:56:36;;;;;;;7.70;5.20;;;25.70;99.90;;;;;;4969466;28;20519;-72
2023/09/06 06:59:02;;;;;;;12.20;5.50;;;25.50;99.90;;;;;;4971206;28;20417;-72
2023/09/06 07:01:30;;;;;;;12.20;6.37;;;25.40;99.90;;;;;;4975209;28;20500;-72
2023/09/06 07:03:57;;;;;;;8.90;6.27;;;25.60;99.90;;;;;;4974435;28;20480;-69
2023/09/06 07:06:23;;;;;;;6.00;5.40;;;27.30;99.90;;;;;;4972603;28;20466;-72
2023/09/06 07:08:49;;;;;;;5.80;5.07;;;26.10;99.90;;;;;;4973857;28;20942;-72
2023/09/06 07:11:16;;;;;;;6.07;5.37;;;27.10;99.90;;;;;;4970995;28;20457;-72
2023/09/06 07:13:42;;;;;;;6.90;5.47;;;26.70;99.90;;;;;;4968458;28;20461;-72
2023/09/06 07:16:08;;;;;;;6.13;5.17;;;26.30;99.90;;;;;;4975198;28;20786;-72
2023/09/06 07:18:34;;;;;;;7.37;5.67;;;26.20;99.90;;;;;;4971328;28;20428;-72
2023/09/06 07:21:00;;;;;;;7.00;5.53;;;26.80;99.90;;;;;;4965487;28;20217;-71
2023/09/06 07:23:27;;;;;;;8.60;6.37;;;27.10;99.90;;;;;;4972588;28;20432;-72
2023/09/06 07:25:52;;;;;;;6.10;5.50;;;26.40;99.90;;;;;;4968569;28;20468;-72
2023/09/06 07:28:21;;;;;;;7.60;5.40;;;27.30;99.90;;;;;;4970786;28;20480;-73
2023/09/06 07:30:47;;;;;;;9.00;5.10;;;26.70;99.90;;;;;;4971092;28;20193;-70
2023/09/06 07:33:12;;;;;;;11.00;5.50;;;26.50;99.90;;;;;;4974627;28;20472;-74
2023/09/06 07:35:40;;;;;;;6.47;4.80;;;27.20;99.90;;;;;;4972138;28;20177;-73
2023/09/06 07:38:06;;;;;;;8.20;4.60;;;26.90;99.90;;;;;;4964142;28;20652;-73
2023/09/06 07:40:31;;;;;;;6.30;5.70;;;26.90;99.90;;;;;;4971960;28;20461;-71
2023/09/06 07:42:57;;;;;;;5.90;4.60;;;27.90;99.90;;;;;;4967491;28;20236;-71
2023/09/06 07:45:23;;;;;;;6.10;4.40;;;29.40;99.90;;;;;;4971935;28;20204;-72
2023/09/06 07:47:48;;;;;;;5.90;5.00;;;29.70;99.90;;;;;;4972877;28;20192;-72
2023/09/06 07:50:14;;;;;;;7.83;5.07;;;30.30;99.90;;;;;;4972922;28;20217;-71
2023/09/06 07:52:39;;;;;;;5.80;4.40;;;29.60;99.90;;;;;;4968345;28;20542;-71
2023/09/06 07:55:06;;;;;;;5.70;4.77;;;28.70;99.90;;;;;;4973801;28;20185;-72
2023/09/06 07:57:31;;;;;;;7.93;5.07;;;28.50;99.90;;;;;;4966053;28;20519;-72
2023/09/06 07:59:57;;;;;;;6.47;4.60;;;29.10;99.90;;;;;;4972837;28;20448;-72
2023/09/06 08:02:22;;;;;;;8.13;5.27;;;29.80;99.90;;;;;;4971983;28;20184;-72
2023/09/06 08:04:50;;;;;;;5.07;4.60;;;30.10;99.90;;;;;;4968198;28;20256;-72
2023/09/06 08:07:16;;;;;;;6.83;6.13;;;30.40;99.90;;;;;;4981184;28;20645;-71
2023/09/06 08:09:42;;;;;;;6.73;4.87;;;30.20;99.40;;;;;;4967810;28;20463;-72
2023/09/06 08:12:08;;;;;;;5.33;4.83;;;29.80;99.90;;;;;;4973854;28;20510;-70
2023/09/06 08:14:33;;;;;;;6.17;5.57;;;30.30;99.90;;;;;;4973672;28;20201;-71
2023/09/06 08:16:59;;;;;;;6.23;5.10;;;30.40;99.90;;;;;;4971001;28;20181;-70
2023/09/06 08:19:25;;;;;;;5.53;5.03;;;29.90;99.90;;;;;;4968502;28;20206;-70
2023/09/06 08:21:51;;;;;;;7.63;5.33;;;29.90;98.60;;;;;;4970992;28;20546;-72
2023/09/06 08:24:18;;;;;;;5.87;5.30;;;29.90;97.90;;;;;;4973522;28;20421;-70
2023/09/06 08:26:48;;;;;;;5.83;5.23;;;30.10;98.30;;;;;;4973757;28;20548;-70
2023/09/06 08:29:14;;;;;;;8.10;5.73;;;30.10;98.20;;;;;;4972251;28;20437;-70
2023/09/06 08:31:39;;;;;;;6.57;5.77;;;30.10;98.00;;;;;;4973330;28;20763;-70
2023/09/06 08:34:05;;;;;;;5.07;4.67;;;29.30;99.70;;;;;;4968580;28;20568;-71
2023/09/06 08:36:30;;;;;;;6.93;5.17;;;29.60;97.80;;;;;;4971735;28;20228;-72
2023/09/06 08:38:57;;;;;;;6.43;5.17;;;29.50;97.80;;;;;;4967513;28;20185;-71
2023/09/06 08:41:26;;;;;;;5.30;4.90;;;29.60;97.70;;;;;;4966732;28;20194;-70
2023/09/06 08:43:52;;;;;;;5.13;4.60;;;29.90;98.10;;;;;;4973275;28;20417;-70
2023/09/06 08:46:27;;;;;;;7.70;5.70;;;29.40;98.70;;;;;;4973229;28;20903;-70
2023/09/06 08:48:54;;;;;;;4.40;4.00;;;28.90;99.50;;;;;;4971453;28;20424;-70
2023/09/06 08:51:21;;;;;;;5.30;4.80;;;29.30;98.30;;;;;;4972110;28;20505;-71
2023/09/06 08:53:48;;;;;;;6.07;4.60;;;29.90;97.20;;;;;;4959036;28;21149;-72
2023/09/06 08:56:15;;;;;;;7.00;4.07;;;29.80;97.30;;;;;;4950025;28;20433;-73
2023/09/06 08:58:41;;;;;;;4.77;4.17;;;30.10;96.50;;;;;;4956806;28;20421;-71
2023/09/06 09:01:07;;;;;;;4.83;4.37;;;29.90;95.80;;;;;;4956917;28;20440;-72
2023/09/06 09:03:33;;;;;;;5.47;5.07;;;29.90;96.40;;;;;;4953609;28;21039;-73
2023/09/06 09:06:00;;;;;;;5.13;4.63;;;29.00;96.80;;;;;;4955785;28;20441;-72
2023/09/06 09:08:29;;;;;;;3.93;3.57;;;29.60;97.30;;;;;;4952661;28;20525;-72
2023/09/06 09:11:21;;;;;;;5.03;3.73;;;29.20;97.20;;;;;;4957254;28;20456;-72
2023/09/06 09:13:47;;;;;;;4.77;4.37;;;29.70;96.80;;;;;;4954816;28;20461;-74
2023/09/06 09:16:14;;;;;;;5.30;4.80;;;30.50;95.10;;;;;;4955234;28;20824;-71
2023/09/06 09:18:43;;;;;;;5.10;3.83;;;29.80;96.60;;;;;;4952467;28;20438;-72
2023/09/06 09:21:11;;;;;;;4.40;4.00;;;30.20;94.50;;;;;;4952647;28;20468;-72
2023/09/06 09:23:52;;;;;;;4.67;4.20;;;30.20;94.80;;;;;;4959488;28;20444;-72
2023/09/06 09:26:20;;;;;;;5.17;4.67;;;29.50;96.20;;;;;;4960420;28;20499;-73
2023/09/06 09:28:45;;;;;;;4.43;4.03;;;29.70;95.90;;;;;;4956101;28;20939;-73
2023/09/06 09:31:15;;;;;;;4.10;3.43;;;30.10;95.00;;;;;;4957785;28;20594;-73
2023/09/06 09:33:49;;;;;;;9.63;4.00;;;30.10;94.90;;;;;;4955155;28;20740;-72
2023/09/06 09:36:17;;;;;;;5.27;4.17;;;29.30;95.70;;;;;;4949862;28;20894;-73
2023/09/06 09:38:51;;;;;;;6.93;4.57;;;29.20;95.50;;;;;;4955652;28;20423;-71
2023/09/06 09:41:16;;;;;;;6.27;4.40;;;29.60;95.70;;;;;;4955907;28;20479;-71
2023/09/06 09:43:42;;;;;;;5.10;3.80;;;29.50;95.00;;;;;;4955657;28;20490;-72
2023/09/06 09:46:09;;;;;;;4.10;3.70;;;29.60;95.40;;;;;;4954371;28;20421;-72
2023/09/06 09:48:36;;;;;;;4.37;3.83;;;29.50;94.90;;;;;;4957633;28;20181;-72
2023/09/06 09:51:06;;;;;;;4.87;4.40;;;29.00;95.50;;;;;;4948434;28;20468;-73
2023/09/06 09:53:33;;;;;;;5.13;4.63;;;28.50;97.10;;;;;;4948912;28;20936;-73
2023/09/06 09:56:07;;;;;;;5.07;4.67;;;28.20;97.30;;;;;;4956743;28;20531;-71
2023/09/06 09:58:36;;;;;;;4.40;4.03;;;28.60;96.50;;;;;;4951334;28;20783;-70
2023/09/06 10:01:05;;;;;;;7.67;4.33;;;28.10;97.10;;;;;;4955371;28;21477;-72
2023/09/06 10:03:34;;;;;;;5.00;4.50;;;28.20;97.20;;;;;;4953853;28;20514;-70
2023/09/06 10:06:03;;;;;;;4.97;4.50;;;28.40;96.60;;;;;;4956887;28;20492;-71
2023/09/06 10:08:32;;;;;;;4.10;3.80;;;28.30;97.60;;;;;;4956546;28;20520;-72
2023/09/06 10:10:57;;;;;;;6.13;4.43;;;27.80;96.30;;;;;;4956634;28;20476;-71
2023/09/06 10:13:26;;;;;;;6.07;4.57;;;27.80;96.70;;;;;;4945997;28;21075;-71
2023/09/06 10:15:53;;;;;;;5.07;4.53;;;27.60;97.90;;;;;;4942753;28;20649;-72
2023/09/06 10:18:19;;;;;;;5.33;4.43;;;27.40;96.70;;;;;;4951017;28;21148;-72
2023/09/06 10:20:46;;;;;;;4.70;4.30;;;27.10;98.00;;;;;;4955367;28;20482;-71
2023/09/06 10:23:12;;;;;;;5.23;4.73;;;27.30;97.90;;;;;;4956822;28;20542;-71
2023/09/06 10:25:53;;;;;;;5.27;4.80;;;27.20;98.00;;;;;;4938570;28;20554;-73
2023/09/06 10:28:23;;;;;;;5.13;4.70;;;27.00;99.10;;;;;;4954495;28;20769;-74
2023/09/06 10:30:57;;;;;;;4.20;3.90;;;27.00;98.80;;;;;;4959830;28;20519;-73
2023/09/06 10:33:30;;;;;;;4.40;3.93;;;26.90;99.30;;;;;;4956440;28;20554;-72
2023/09/06 10:36:03;;;;;;;4.70;4.13;;;26.70;98.90;;;;;;4954551;28;20460;-71
2023/09/06 10:38:35;;;;;;;6.37;4.00;;;26.90;99.60;;;;;;4958882;28;20509;-71
2023/09/06 10:41:00;;;;;;;7.57;5.20;;;27.20;99.50;;;;;;4947700;28;20916;-70
2023/09/06 10:43:42;;;;;;;4.70;4.30;;;27.40;99.60;;;;;;4959225;28;21128;-73
2023/09/06 10:46:07;;;;;;;6.77;5.00;;;27.40;99.60;;;;;;4960228;28;20247;-72
2023/09/06 10:48:33;;;;;;;4.73;4.30;;;27.20;99.90;;;;;;4955976;28;20441;-71
2023/09/06 10:51:12;;;;;;;5.70;5.20;;;27.40;99.90;;;;;;4957223;28;20548;-70
2023/09/06 10:53:40;;;;;;;6.63;4.43;;;27.40;99.90;;;;;;4949137;28;20463;-73
2023/09/06 10:56:07;;;;;;;5.80;4.07;;;27.40;98.40;;;;;;4958387;28;20953;-71
2023/09/06 10:58:37;;;;;;;4.53;4.13;;;27.20;96.00;;;;;;4947422;28;20701;-72
2023/09/06 11:01:18;;;;;;;4.43;4.03;;;27.10;98.80;;;;;;4951409;28;20555;-72
2023/09/06 11:03:51;;;;;;;6.10;5.17;;;27.20;99.60;;;;;;4955174;28;20450;-71
2023/09/06 11:06:18;;;;;;;5.87;4.50;;;27.30;99.00;;;;;;4954266;28;20509;-73
2023/09/06 11:08:46;;;;;;;6.03;4.97;;;27.00;98.80;;;;;;4956898;28;20898;-72
2023/09/06 11:11:13;;;;;;;4.23;3.83;;;27.10;99.50;;;;;;4949099;28;20870;-71
2023/09/06 11:13:41;;;;;;;5.67;4.40;;;27.20;99.50;;;;;;4944689;28;20512;-71
2023/09/06 11:16:16;;;;;;;6.10;4.80;;;27.30;99.40;;;;;;4957543;28;21047;-70
2023/09/06 11:18:43;;;;;;;5.83;4.73;;;27.30;98.50;;;;;;4959129;28;20404;-69
2023/09/06 11:21:09;;;;;;;5.33;4.93;;;27.20;98.00;;;;;;4959127;28;20739;-71
2023/09/06 11:23:48;;;;;;;5.77;4.40;;;27.10;98.20;;;;;;4969660;28;20427;-71
2023/09/06 11:26:15;;;;;;;7.93;4.80;;;27.30;98.00;;;;;;4948259;28;20179;-71
2023/09/06 11:28:43;;;;;;;5.00;4.53;;;27.10;98.50;;;;;;4953617;28;20949;-72
2023/09/06 11:31:27;;;;;;;4.63;4.33;;;27.30;98.70;;;;;;4953267;28;20454;-70
2023/09/06 11:34:01;;;;;;;4.20;3.70;;;27.50;97.90;;;;;;4953514;28;20459;-70
2023/09/06 11:36:30;;;;;;;4.23;3.83;;;27.10;97.40;;;;;;4955751;28;20545;-71
2023/09/06 11:39:40;;;;;;;5.27;4.17;;;27.30;97.10;;;;;;4955995;28;20440;-71
2023/09/06 11:41:47;;;;;;;4.60;3.97;;;27.50;97.90;;;;;;4945266;28;20444;-71
2023/09/06 11:44:14;;;;;;;8.03;4.10;;;27.60;97.60;;;;;;4956196;28;20564;-73
2023/09/06 11:46:43;;;;;;;4.83;3.83;;;27.40;96.30;;;;;;4954160;28;20432;-71
2023/09/06 11:49:10;;;;;;;8.67;4.10;;;27.40;97.40;;;;;;4958221;28;20419;-71
2023/09/06 11:51:37;;;;;;;5.07;4.10;;;27.50;96.90;;;;;;4958285;28;20419;-72
2023/09/06 11:54:09;;;;;;;5.60;4.07;;;27.60;97.40;;;;;;4957859;28;20553;-70
2023/09/06 11:56:38;;;;;;;4.80;4.30;;;27.70;96.60;;;;;;4958118;28;20417;-71
2023/09/06 11:59:12;;;;;;;4.00;3.70;;;27.80;95.90;;;;;;4955748;28;20433;-71
2023/09/06 12:01:43;;;;;;;5.77;4.77;;;27.80;95.50;;;;;;4946351;28;20444;-70
2023/09/06 12:04:16;;;;;;;4.70;4.23;;;27.70;96.00;;;;;;4955862;28;20587;-70
2023/09/06 12:06:42;;;;;;;4.30;3.90;;;27.70;96.10;;;;;;4947942;28;20972;-71
2023/09/06 12:09:12;;;;;;;3.60;3.30;;;27.60;95.30;;;;;;4951552;28;20764;-71
2023/09/06 12:11:38;;;;;;;4.20;3.67;;;27.70;94.70;;;;;;4956824;28;21058;-69
2023/09/06 12:14:04;;;;;;;3.93;3.63;;;27.80;95.50;;;;;;4957599;28;20554;-73
2023/09/06 12:16:31;;;;;;;5.37;3.80;;;27.90;95.80;;;;;;4948364;28;20424;-71
2023/09/06 12:18:56;;;;;;;4.27;3.70;;;27.90;95.70;;;;;;4952802;28;20208;-71
2023/09/06 12:21:22;;;;;;;3.97;3.57;;;27.90;95.70;;;;;;4951401;28;20464;-71
2023/09/06 12:23:53;;;;;;;4.77;3.20;;;28.00;95.90;;;;;;4952059;28;20671;-71
2023/09/06 12:26:20;;;;;;;6.00;3.27;;;28.00;96.20;;;;;;4937334;28;20197;-71
2023/09/06 12:28:47;;;;;;;4.60;3.73;;;28.00;95.70;;;;;;4957549;28;20512;-69
2023/09/06 12:31:14;;;;;;;5.60;4.23;;;28.10;95.90;;;;;;4961259;28;20451;-69
2023/09/06 12:33:44;;;;;;;4.77;4.07;;;28.20;96.20;;;;;;4966032;28;20455;-70
2023/09/06 12:36:11;;;;;;;4.17;3.73;;;28.10;96.60;;;;;;4945491;29;20461;-70
2023/09/06 12:38:36;;;;;;;6.60;3.60;;;28.10;94.70;;;;;;4960881;28;20438;-70
2023/09/06 12:41:04;;;;;;;3.83;3.50;;;28.20;94.50;;;;;;4953895;28;20728;-70
2023/09/06 12:43:34;;;;;;;4.97;4.57;;;28.10;93.90;;;;;;4954211;28;20169;-72
2023/09/06 12:46:00;;;;;;;5.63;3.77;;;28.10;94.40;;;;;;4947372;28;20658;-71
2023/09/06 12:48:26;;;;;;;4.40;3.27;;;28.20;93.90;;;;;;4953867;28;20816;-72